createdAt,value
2018-12-19T00:00:08.004Z,40.73
2018-12-19T00:05:10.389Z,43.35
2018-12-19T00:10:13.238Z,40.67
2018-12-19T00:15:15.546Z,42.67
2018-12-19T00:20:18.291Z,52.23
2018-12-19T00:25:21.433Z,43.05
2018-12-19T00:30:24.108Z,43.80
2018-12-19T00:35:26.865Z,47.70
2018-12-19T00:40:29.528Z,49.42
2018-12-19T00:45:31.987Z,39.85
2018-12-19T00:50:34.664Z,46.53
2018-12-19T00:55:37.050Z,46.55
2018-12-19T01:00:39.642Z,42.13
2018-12-19T01:05:42.298Z,43.55
2018-12-19T01:10:44.952Z,45.52
2018-12-19T01:15:47.591Z,45.15
2018-12-19T01:20:49.930Z,40.95
2018-12-19T01:25:52.579Z,44.90
2018-12-19T01:30:55.046Z,42.95
2018-12-19T01:35:57.509Z,38.05
2018-12-19T01:41:00.867Z,47.08
2018-12-19T01:46:03.728Z,45.00
2018-12-19T01:51:06.226Z,44.25
2018-12-19T01:56:08.758Z,40.28
2018-12-19T02:01:11.124Z,41.88
2018-12-19T02:06:14.567Z,43.73
2018-12-19T02:11:17.050Z,44.70
2018-12-19T02:16:19.900Z,44.73
2018-12-19T02:21:22.295Z,39.90
2018-12-19T02:26:25.152Z,39.85
2018-12-19T02:31:27.562Z,43.30
2018-12-19T02:36:30.290Z,47.23
2018-12-19T02:41:32.819Z,40.28
2018-12-19T02:46:35.930Z,46.75
2018-12-19T02:51:38.344Z,45.50
2018-12-19T02:56:40.863Z,43.92
2018-12-19T03:01:43.197Z,44.60
2018-12-19T03:06:45.553Z,46.85
2018-12-19T03:11:48.378Z,41.25
2018-12-19T03:16:50.795Z,46.02
2018-12-19T03:21:53.378Z,40.92
2018-12-19T03:26:55.671Z,44.23
2018-12-19T03:31:58.553Z,41.10
2018-12-19T03:37:00.877Z,42.38
2018-12-19T03:42:03.337Z,41.65
2018-12-19T03:47:05.670Z,42.90
2018-12-19T03:52:08.677Z,48.02
2018-12-19T03:57:11.428Z,43.45
2018-12-19T04:02:13.969Z,45.43
2018-12-19T04:07:16.384Z,41.60
2018-12-19T04:12:18.962Z,42.95
2018-12-19T04:17:21.299Z,48.02
2018-12-19T04:22:26.297Z,41.55
2018-12-19T04:27:28.785Z,45.38
2018-12-19T04:32:34.238Z,45.33
2018-12-19T04:37:36.520Z,37.98
2018-12-19T04:42:39.105Z,45.63
2018-12-19T04:47:41.792Z,42.67
2018-12-19T04:52:44.367Z,44.20
2018-12-19T04:57:46.711Z,40.92
2018-12-19T05:02:49.407Z,46.08
2018-12-19T05:07:53.511Z,46.95
2018-12-19T05:12:55.833Z,50.55
2018-12-19T05:17:58.129Z,46.28
2018-12-19T05:23:00.573Z,44.70
2018-12-19T05:28:02.880Z,50.15
2018-12-19T05:33:05.665Z,47.98
2018-12-19T05:38:08.145Z,46.33
2018-12-19T05:43:10.676Z,42.13
2018-12-19T05:48:13.411Z,43.25
2018-12-19T05:53:15.991Z,48.58
2018-12-19T05:58:18.534Z,46.08
2018-12-19T06:03:20.944Z,47.38
2018-12-19T06:08:23.571Z,54.27
2018-12-19T06:13:25.926Z,50.25
2018-12-19T06:18:28.536Z,49.60
2018-12-19T06:23:31.201Z,48.33
2018-12-19T06:28:33.738Z,47.27
2018-12-19T06:33:36.876Z,50.65
2018-12-19T06:38:39.542Z,47.33
2018-12-19T06:43:43.004Z,51.35
2018-12-19T06:48:45.589Z,45.40
2018-12-19T06:53:48.079Z,48.95
2018-12-19T06:58:50.426Z,49.58
2018-12-19T07:03:53.422Z,50.52
2018-12-19T07:08:55.897Z,49.77
2018-12-19T07:13:58.454Z,44.05
2018-12-19T07:19:00.826Z,49.50
2018-12-19T07:24:03.370Z,41.98
2018-12-19T07:29:05.719Z,47.43
2018-12-19T07:34:08.213Z,46.25
2018-12-19T07:39:10.675Z,46.05
2018-12-19T07:44:13.042Z,48.85
2018-12-19T07:49:15.419Z,41.42
2018-12-19T07:54:17.876Z,49.33
2018-12-19T07:59:20.461Z,45.30
2018-12-19T08:04:23.195Z,49.15
2018-12-19T08:09:25.510Z,49.67
2018-12-19T08:14:27.861Z,44.65
2018-12-19T08:19:30.163Z,51.92
2018-12-19T08:24:32.567Z,51.37
2018-12-19T08:29:34.928Z,50.43
2018-12-19T08:34:37.300Z,47.53
2018-12-19T08:39:39.920Z,49.95
2018-12-19T08:44:42.688Z,53.58
2018-12-19T08:49:45.418Z,51.48
2018-12-19T08:54:47.707Z,46.42
2018-12-19T08:59:50.543Z,53.98
2018-12-19T09:04:52.931Z,50.80
2018-12-19T09:09:55.702Z,55.15
2018-12-19T09:14:58.310Z,52.27
2018-12-19T09:20:01.376Z,50.50
2018-12-19T09:25:03.950Z,55.30
2018-12-19T09:30:07.633Z,60.37
2018-12-19T09:35:10.492Z,52.95
2018-12-19T09:40:13.228Z,49.23
2018-12-19T09:45:15.885Z,46.28
2018-12-19T09:50:18.513Z,43.15
2018-12-19T09:55:20.953Z,37.53
2018-12-19T10:00:26.893Z,36.48
2018-12-19T10:05:29.552Z,36.90
2018-12-19T10:10:32.021Z,42.08
2018-12-19T10:15:34.773Z,44.48
2018-12-19T10:20:37.649Z,46.20
2018-12-19T10:25:40.305Z,44.05
2018-12-19T10:30:47.170Z,49.38
2018-12-19T10:35:50.219Z,51.25
2018-12-19T10:40:53.529Z,45.38
2018-12-19T10:45:56.747Z,47.58
2018-12-19T10:50:59.225Z,47.60
2018-12-19T10:56:02.915Z,43.55
2018-12-19T11:01:05.815Z,44.10
2018-12-19T11:06:08.925Z,46.23
2018-12-19T11:11:11.643Z,46.40
2018-12-19T11:16:14.448Z,37.98
2018-12-19T11:21:16.933Z,39.80
2018-12-19T11:26:19.429Z,38.58
2018-12-19T11:31:21.832Z,41.80
2018-12-19T11:36:24.527Z,39.75
2018-12-19T11:41:27.743Z,39.98
2018-12-19T11:46:31.735Z,36.35
2018-12-19T11:51:34.363Z,46.37
2018-12-19T11:56:36.955Z,38.40
2018-12-19T12:01:41.532Z,38.38
2018-12-19T12:06:44.220Z,37.63
2018-12-19T12:11:46.613Z,35.45
2018-12-19T12:16:49.048Z,41.15
2018-12-19T12:21:51.595Z,40.92
2018-12-19T12:26:54.096Z,39.03
2018-12-19T12:31:56.817Z,37.78
2018-12-19T12:36:59.721Z,37.78
2018-12-19T12:42:02.348Z,42.25
2018-12-19T12:47:04.778Z,45.15
2018-12-19T12:52:07.481Z,41.25
2018-12-19T12:57:10.143Z,45.88
2018-12-19T13:02:13.134Z,44.63
2018-12-19T13:07:15.676Z,36.88
2018-12-19T13:12:18.282Z,35.30
2018-12-19T13:17:20.947Z,34.43
2018-12-19T13:22:24.027Z,33.53
2018-12-19T13:27:33.021Z,35.20
2018-12-19T13:32:35.563Z,34.08
2018-12-19T13:37:37.959Z,33.50
2018-12-19T13:42:40.454Z,31.75
2018-12-19T13:47:42.942Z,31.50
2018-12-19T13:52:45.678Z,33.40
2018-12-19T13:57:48.059Z,31.80
2018-12-19T14:02:50.646Z,33.13
2018-12-19T14:07:53.153Z,30.37
2018-12-19T14:12:56.125Z,34.85
2018-12-19T14:17:59.230Z,32.28
2018-12-19T14:23:02.734Z,33.73
2018-12-19T14:28:05.268Z,31.27
2018-12-19T14:33:08.339Z,35.95
2018-12-19T14:38:11.641Z,29.75
2018-12-19T14:43:14.158Z,37.15
2018-12-19T14:48:16.494Z,34.75
2018-12-19T14:53:19.223Z,34.92
2018-12-19T14:58:22.582Z,34.88
2018-12-19T15:03:25.078Z,36.53
2018-12-19T15:08:27.515Z,36.42
2018-12-19T15:13:30.222Z,35.73
2018-12-19T15:18:32.565Z,33.78
2018-12-19T15:23:34.983Z,38.80
2018-12-19T15:28:37.376Z,40.67
2018-12-19T15:33:39.767Z,37.67
2018-12-19T15:38:42.174Z,46.63
2018-12-19T15:43:44.755Z,40.65
2018-12-19T15:48:47.226Z,52.33
2018-12-19T15:53:50.433Z,48.15
2018-12-19T15:58:53.040Z,48.50
2018-12-19T16:03:55.415Z,46.33
2018-12-19T16:08:57.798Z,44.63
2018-12-19T16:14:00.491Z,40.50
2018-12-19T16:19:03.116Z,41.75
2018-12-19T16:24:05.418Z,44.45
2018-12-19T16:29:07.994Z,49.98
2018-12-19T16:34:10.584Z,40.40
2018-12-19T16:39:12.959Z,46.25
2018-12-19T16:44:15.433Z,45.43
2018-12-19T16:49:18.243Z,42.75
2018-12-19T16:54:20.791Z,44.80
2018-12-19T16:59:23.215Z,40.15
2018-12-19T17:04:25.563Z,39.67
2018-12-19T17:09:27.996Z,41.10
2018-12-19T17:14:30.397Z,46.35
2018-12-19T17:19:33.095Z,45.95
2018-12-19T17:24:39.885Z,45.90
2018-12-19T17:29:42.308Z,46.25
2018-12-19T17:34:44.653Z,46.80
2018-12-19T17:39:46.976Z,50.83
2018-12-19T17:44:49.397Z,44.30
2018-12-19T17:49:52.446Z,46.88
2018-12-19T17:54:54.970Z,48.60
2018-12-19T17:59:57.337Z,48.42
2018-12-19T18:04:59.814Z,41.70
2018-12-19T18:10:02.194Z,43.83
2018-12-19T18:15:04.589Z,37.85
2018-12-19T18:20:07.539Z,36.35
2018-12-19T18:25:10.277Z,35.95
2018-12-19T18:30:12.875Z,34.30
2018-12-19T18:35:15.360Z,39.60
2018-12-19T18:40:17.778Z,39.80
2018-12-19T18:45:21.066Z,39.03
2018-12-19T18:50:23.522Z,33.42
2018-12-19T18:55:26.121Z,42.45
2018-12-19T19:00:33.577Z,34.88
2018-12-19T19:05:36.978Z,33.38
2018-12-19T19:10:39.683Z,38.08
2018-12-19T19:15:44.183Z,33.48
2018-12-19T19:20:46.764Z,35.05
2018-12-19T19:25:49.159Z,36.88
2018-12-19T19:30:51.684Z,35.10
2018-12-19T19:35:54.320Z,37.98
2018-12-19T19:40:56.862Z,33.23
2018-12-19T19:45:59.424Z,35.43
2018-12-19T19:51:01.921Z,37.17
2018-12-19T19:56:04.466Z,39.85
2018-12-19T20:01:07.023Z,35.40
2018-12-19T20:06:09.521Z,35.70
2018-12-19T20:11:13.014Z,39.95
2018-12-19T20:16:15.424Z,38.80
2018-12-19T20:21:17.862Z,32.73
2018-12-19T20:26:20.275Z,38.28
2018-12-19T20:31:22.701Z,36.83
2018-12-19T20:36:25.093Z,37.83
2018-12-19T20:41:27.686Z,36.23
2018-12-19T20:46:30.042Z,42.38
2018-12-19T20:51:32.566Z,37.65
2018-12-19T20:56:35.161Z,42.25
2018-12-19T21:01:38.373Z,42.03
2018-12-19T21:06:40.795Z,41.80
2018-12-19T21:11:43.631Z,43.42
2018-12-19T21:16:51.792Z,42.58
2018-12-19T21:21:54.417Z,44.03
2018-12-19T21:26:56.985Z,41.65
2018-12-19T21:31:59.366Z,45.63
2018-12-19T21:37:02.193Z,47.60
2018-12-19T21:42:04.832Z,48.50
2018-12-19T21:47:07.296Z,46.98
2018-12-19T21:52:10.026Z,45.48
2018-12-19T21:57:12.387Z,46.68
2018-12-19T22:02:14.987Z,47.03
2018-12-19T22:07:17.552Z,41.65
2018-12-19T22:12:19.998Z,44.93
2018-12-19T22:17:28.298Z,44.45
2018-12-19T22:22:30.819Z,41.23
2018-12-19T22:27:33.628Z,43.15
2018-12-19T22:32:36.013Z,43.17
2018-12-19T22:37:39.046Z,44.23
2018-12-19T22:42:41.500Z,44.48
2018-12-19T22:47:44.035Z,42.10
2018-12-19T22:52:46.914Z,46.77
2018-12-19T22:57:49.285Z,47.23
2018-12-19T23:02:57.533Z,41.73
2018-12-19T23:08:00.146Z,44.05
2018-12-19T23:13:03.086Z,41.90
2018-12-19T23:18:11.279Z,45.98
2018-12-19T23:23:13.835Z,46.80
2018-12-19T23:28:16.423Z,47.67
2018-12-19T23:33:18.838Z,39.65
2018-12-19T23:38:21.345Z,44.60
2018-12-19T23:43:23.697Z,45.67
2018-12-19T23:48:26.035Z,46.98
2018-12-19T23:53:28.608Z,43.40
2018-12-19T23:58:31.073Z,41.83
